Time;durP1;ratioP1;P1;durP2;ratioP2;P2;SDS_P1;SDS_P2;PMS_P1;PMS_P2;Temp;Humidity;BMP_temperature;BMP_pressure;BME280_temperature;BME280_humidity;BME280_pressure;Samples;Min_cycle;Max_cycle;Signal;HPM_P1;HPM_P2
2023/07/22 04:04:55;;;;;;;1.60;1.55;;;12.80;99.90;;;;;;5814163;23;20543;-71
2023/07/22 04:07:21;;;;;;;2.70;2.50;;;12.80;99.90;;;;;;4959369;28;20255;-71
2023/07/22 04:09:47;;;;;;;2.17;2.07;;;12.80;99.90;;;;;;4976875;28;20460;-70
2023/07/22 04:12:13;;;;;;;1.50;1.50;;;12.80;99.90;;;;;;4977205;28;20504;-70
2023/07/22 04:14:40;;;;;;;1.80;1.70;;;12.90;99.90;;;;;;4972214;28;20285;-70
2023/07/22 04:17:06;;;;;;;1.33;1.17;;;13.00;99.90;;;;;;4958017;29;20201;-71
2023/07/22 04:19:32;;;;;;;1.53;1.30;;;13.00;99.90;;;;;;4940734;29;20438;-71
2023/07/22 04:21:58;;;;;;;2.80;2.27;;;13.00;99.90;;;;;;4959665;29;20257;-72
2023/07/22 04:24:24;;;;;;;2.03;1.93;;;13.10;99.90;;;;;;4959300;28;20199;-73
2023/07/22 04:26:50;;;;;;;2.10;1.90;;;13.10;99.90;;;;;;4961612;28;20176;-73
2023/07/22 04:29:16;;;;;;;1.83;1.70;;;13.20;99.90;;;;;;4964407;29;20411;-72
2023/07/22 04:31:41;;;;;;;1.70;1.60;;;13.30;99.90;;;;;;4965640;29;20208;-73
2023/07/22 04:34:07;;;;;;;3.13;1.63;;;13.30;99.90;;;;;;4948051;28;20237;-72
2023/07/22 04:36:33;;;;;;;2.30;2.20;;;13.50;99.90;;;;;;4961898;29;20176;-71
2023/07/22 04:38:59;;;;;;;1.93;1.83;;;13.60;99.90;;;;;;4958523;29;20476;-73
2023/07/22 04:41:25;;;;;;;2.00;1.70;;;13.90;99.90;;;;;;4957687;29;20442;-71
2023/07/22 04:43:51;;;;;;;1.97;1.87;;;14.00;99.90;;;;;;4957461;29;20173;-74
2023/07/22 04:46:17;;;;;;;1.50;1.47;;;14.30;99.90;;;;;;4957661;28;20407;-71
2023/07/22 04:48:42;;;;;;;2.27;2.03;;;14.40;99.90;;;;;;4957543;29;20469;-73
2023/07/22 04:51:08;;;;;;;2.20;2.00;;;14.50;99.90;;;;;;4957487;29;20504;-71
2023/07/22 04:53:34;;;;;;;2.07;1.97;;;14.70;99.90;;;;;;4956867;28;20261;-72
2023/07/22 04:55:59;;;;;;;2.50;2.30;;;14.80;99.90;;;;;;4957258;28;20255;-72
2023/07/22 04:58:25;;;;;;;2.10;1.73;;;14.90;99.90;;;;;;4957156;28;20176;-71
2023/07/22 05:00:51;;;;;;;1.80;1.70;;;15.00;99.90;;;;;;4956792;28;20252;-73
2023/07/22 05:03:18;;;;;;;1.50;1.40;;;15.00;99.90;;;;;;4956052;29;20172;-72
2023/07/22 05:05:43;;;;;;;1.47;1.37;;;15.10;99.90;;;;;;4956426;28;20530;-71
2023/07/22 05:08:09;;;;;;;1.80;1.70;;;15.10;99.90;;;;;;4957027;29;20371;-71
2023/07/22 05:10:36;;;;;;;1.50;1.40;;;15.30;99.90;;;;;;4957051;29;20181;-72
2023/07/22 05:13:01;;;;;;;1.93;1.77;;;15.30;99.90;;;;;;4957704;29;20568;-73
2023/07/22 05:15:27;;;;;;;2.17;1.57;;;15.50;99.90;;;;;;4956434;28;20433;-72
2023/07/22 05:17:52;;;;;;;2.23;2.03;;;15.60;99.90;;;;;;4956220;29;20699;-71
2023/07/22 05:20:18;;;;;;;1.50;1.40;;;15.80;99.90;;;;;;4956739;29;20181;-71
2023/07/22 05:22:43;;;;;;;1.60;1.50;;;15.90;99.90;;;;;;4956768;29;20291;-73
2023/07/22 05:25:09;;;;;;;1.67;1.57;;;15.90;99.90;;;;;;4955655;29;20295;-74
2023/07/22 05:27:36;;;;;;;1.40;1.30;;;16.00;99.90;;;;;;4956434;29;20177;-72
2023/07/22 05:30:02;;;;;;;2.10;2.00;;;16.00;99.90;;;;;;4956479;29;20399;-71
2023/07/22 05:32:30;;;;;;;2.10;2.00;;;16.00;99.90;;;;;;4956648;29;20391;-72
2023/07/22 05:34:56;;;;;;;1.43;1.33;;;16.10;99.90;;;;;;4955545;29;20468;-70
2023/07/22 05:37:25;;;;;;;1.80;1.70;;;16.20;99.90;;;;;;4956262;29;20465;-73
2023/07/22 05:39:51;;;;;;;2.20;2.07;;;16.30;99.90;;;;;;4956175;29;20184;-71
2023/07/22 05:42:17;;;;;;;2.07;1.60;;;16.30;99.90;;;;;;4956175;29;20406;-73
2023/07/22 05:44:43;;;;;;;1.60;1.50;;;16.50;99.90;;;;;;4955936;29;20220;-70
2023/07/22 05:47:09;;;;;;;1.77;1.67;;;16.60;99.90;;;;;;4956097;29;20913;-72
2023/07/22 05:49:34;;;;;;;2.53;2.03;;;16.70;99.90;;;;;;4955847;29;20185;-71
2023/07/22 05:52:00;;;;;;;2.40;1.87;;;16.70;99.90;;;;;;4938864;29;20182;-73
2023/07/22 05:54:25;;;;;;;3.03;2.10;;;16.70;99.90;;;;;;4955626;28;20218;-71
2023/07/22 05:56:51;;;;;;;1.30;1.20;;;16.70;99.90;;;;;;4956093;28;20175;-73
2023/07/22 05:59:17;;;;;;;1.63;1.53;;;16.70;99.90;;;;;;4955758;29;20265;-74
2023/07/22 06:01:43;;;;;;;2.27;2.07;;;16.90;99.90;;;;;;4938802;29;20536;-70
2023/07/22 06:04:08;;;;;;;1.30;1.20;;;16.90;99.90;;;;;;4955466;29;20178;-75
2023/07/22 06:06:34;;;;;;;1.50;1.40;;;17.10;99.90;;;;;;4938398;29;20198;-70
2023/07/22 06:09:00;;;;;;;1.20;1.20;;;17.30;99.90;;;;;;4955545;29;20190;-73
2023/07/22 06:11:26;;;;;;;1.37;1.27;;;17.50;99.90;;;;;;4963044;28;20421;-70
2023/07/22 06:13:51;;;;;;;1.70;1.57;;;17.50;99.90;;;;;;4974379;28;20658;-74
2023/07/22 06:16:17;;;;;;;1.60;1.50;;;17.60;99.90;;;;;;4975040;28;20220;-70
2023/07/22 06:18:42;;;;;;;1.70;1.60;;;17.70;99.90;;;;;;4967841;28;20235;-75
2023/07/22 06:21:08;;;;;;;2.80;2.00;;;17.70;99.90;;;;;;4955858;29;20172;-71
2023/07/22 06:23:34;;;;;;;1.87;1.77;;;17.90;99.90;;;;;;4955182;29;20583;-71
2023/07/22 06:26:00;;;;;;;2.20;1.87;;;18.10;99.90;;;;;;4955398;29;20503;-72
2023/07/22 06:28:25;;;;;;;1.90;1.33;;;18.10;99.90;;;;;;4938001;29;20177;-74
2023/07/22 06:30:51;;;;;;;1.83;1.73;;;18.20;99.90;;;;;;4955694;29;20205;-71
2023/07/22 06:33:16;;;;;;;1.50;1.30;;;18.20;99.90;;;;;;4955424;29;20181;-69
2023/07/22 06:35:42;;;;;;;1.20;1.10;;;18.30;99.90;;;;;;4954815;29;20216;-72
2023/07/22 06:38:08;;;;;;;1.70;1.60;;;18.40;99.90;;;;;;4955088;29;20177;-68
2023/07/22 06:40:33;;;;;;;1.73;1.63;;;18.50;99.90;;;;;;4955268;29;20191;-65
2023/07/22 06:42:59;;;;;;;1.53;1.33;;;18.60;99.90;;;;;;4955293;29;20183;-65
2023/07/22 06:45:24;;;;;;;2.20;1.50;;;18.70;99.90;;;;;;4954944;29;20204;-65
2023/07/22 06:47:50;;;;;;;1.47;1.37;;;18.70;99.90;;;;;;4937973;29;20177;-65
2023/07/22 06:50:16;;;;;;;1.47;1.37;;;18.90;99.90;;;;;;4954716;29;20255;-65
2023/07/22 06:52:41;;;;;;;1.20;1.10;;;19.10;99.90;;;;;;4955245;29;20536;-66
2023/07/22 06:55:07;;;;;;;1.40;1.30;;;19.30;99.90;;;;;;4954704;29;20213;-65
2023/07/22 06:57:33;;;;;;;1.50;1.40;;;19.40;99.90;;;;;;4937941;29;20263;-64
2023/07/22 06:59:59;;;;;;;1.53;1.43;;;19.50;99.90;;;;;;4954935;29;20439;-66
2023/07/22 07:02:25;;;;;;;1.93;1.47;;;19.60;99.90;;;;;;4955130;29;20404;-66
2023/07/22 07:04:50;;;;;;;2.00;1.67;;;19.50;99.90;;;;;;4954517;29;20564;-67
2023/07/22 07:07:16;;;;;;;1.23;1.13;;;19.70;99.90;;;;;;4955168;29;20893;-67
2023/07/22 07:09:42;;;;;;;1.30;1.20;;;19.90;99.90;;;;;;4955325;29;20177;-66
2023/07/22 07:12:08;;;;;;;1.30;1.20;;;20.20;99.90;;;;;;4955070;29;20181;-67
2023/07/22 07:14:34;;;;;;;1.33;1.30;;;20.40;99.90;;;;;;4953988;29;20458;-65
2023/07/22 07:17:00;;;;;;;0.97;0.97;;;20.50;99.90;;;;;;4954595;28;20438;-65
2023/07/22 07:19:26;;;;;;;1.20;1.10;;;20.70;99.90;;;;;;4954787;29;20193;-65
2023/07/22 07:21:52;;;;;;;3.00;1.37;;;21.00;99.90;;;;;;4954093;29;20760;-66
2023/07/22 07:24:18;;;;;;;1.40;1.30;;;21.20;99.90;;;;;;4952988;28;20391;-66
2023/07/22 07:26:43;;;;;;;1.70;1.60;;;21.30;99.90;;;;;;4957426;29;20229;-66
2023/07/22 07:29:09;;;;;;;1.03;1.03;;;21.20;99.90;;;;;;4958567;29;20180;-67
2023/07/22 07:31:35;;;;;;;1.30;1.20;;;21.30;99.90;;;;;;4941352;29;20659;-67
2023/07/22 07:34:01;;;;;;;1.00;1.00;;;21.30;99.90;;;;;;4957685;28;20303;-67
2023/07/22 07:36:26;;;;;;;1.20;1.20;;;21.60;99.90;;;;;;4958411;29;20221;-68
2023/07/22 07:38:52;;;;;;;1.50;1.40;;;22.20;99.90;;;;;;4957641;28;20964;-66
2023/07/22 07:41:17;;;;;;;1.60;1.27;;;23.00;99.90;;;;;;4956361;29;20204;-66
2023/07/22 07:43:44;;;;;;;0.97;0.97;;;24.00;99.60;;;;;;4938572;29;20963;-65
2023/07/22 07:46:20;;;;;;;1.30;1.20;;;25.00;96.90;;;;;;4956134;29;20456;-67
2023/07/22 07:48:46;;;;;;;2.60;2.50;;;26.20;94.30;;;;;;4956529;29;20179;-67
2023/07/22 07:51:16;;;;;;;1.50;1.40;;;27.40;92.50;;;;;;4956294;28;20416;-67
2023/07/22 07:53:43;;;;;;;1.33;1.20;;;28.40;89.00;;;;;;4955860;29;21326;-66
2023/07/22 07:56:10;;;;;;;6.83;5.40;;;29.30;85.10;;;;;;4957931;29;20519;-66
2023/07/22 07:58:37;;;;;;;1.53;1.43;;;30.00;83.40;;;;;;4958094;28;20459;-66
2023/07/22 08:01:03;;;;;;;1.60;1.50;;;30.40;78.20;;;;;;4958182;29;20452;-66
2023/07/22 08:03:29;;;;;;;1.50;1.40;;;30.50;77.20;;;;;;4957802;28;20420;-66
2023/07/22 08:05:55;;;;;;;1.53;1.43;;;30.80;78.70;;;;;;4940082;29;20472;-66
2023/07/22 08:08:22;;;;;;;1.30;1.20;;;31.20;74.00;;;;;;4958119;29;20404;-66
2023/07/22 08:10:48;;;;;;;1.77;1.67;;;31.40;74.90;;;;;;4940589;29;20272;-65
2023/07/22 08:13:14;;;;;;;1.50;1.40;;;31.90;73.50;;;;;;4958110;29;20424;-67
2023/07/22 08:15:41;;;;;;;1.30;1.20;;;32.60;72.00;;;;;;4957022;29;20448;-66
2023/07/22 08:18:07;;;;;;;1.80;1.70;;;32.80;69.50;;;;;;4957511;29;20424;-66
2023/07/22 08:20:32;;;;;;;1.70;1.60;;;33.00;69.90;;;;;;4957572;29;20467;-66
2023/07/22 08:22:58;;;;;;;2.00;1.90;;;33.30;67.80;;;;;;4957519;29;20177;-66
2023/07/22 08:25:24;;;;;;;3.17;2.10;;;33.70;66.50;;;;;;4957163;29;20209;-66
2023/07/22 08:27:49;;;;;;;1.63;1.53;;;34.10;65.20;;;;;;4957537;29;20188;-66
2023/07/22 08:30:15;;;;;;;2.87;2.60;;;34.50;63.70;;;;;;4957705;29;20184;-67
2023/07/22 08:32:40;;;;;;;1.53;1.47;;;35.30;60.70;;;;;;4957755;29;20204;-66
2023/07/22 08:35:06;;;;;;;2.97;1.40;;;35.90;58.90;;;;;;4956946;28;20209;-66
2023/07/22 08:37:32;;;;;;;1.33;1.33;;;36.20;58.90;;;;;;4957231;28;20184;-66
2023/07/22 08:39:58;;;;;;;2.53;2.37;;;36.00;59.00;;;;;;4957178;29;20425;-67
2023/07/22 08:42:25;;;;;;;1.60;1.50;;;36.00;57.80;;;;;;4956260;29;20259;-67
2023/07/22 08:44:56;;;;;;;1.73;1.63;;;36.20;57.20;;;;;;4957024;28;20552;-67
2023/07/22 08:47:24;;;;;;;1.67;1.30;;;36.40;56.20;;;;;;4940156;29;20412;-67
2023/07/22 08:49:53;;;;;;;2.63;2.10;;;36.90;55.40;;;;;;4956665;28;20424;-67
2023/07/22 08:52:19;;;;;;;1.50;1.43;;;37.30;55.20;;;;;;4957108;29;20420;-67
2023/07/22 08:54:45;;;;;;;1.70;1.60;;;37.50;54.70;;;;;;4956467;29;20491;-65
2023/07/22 08:57:14;;;;;;;1.67;1.57;;;37.70;53.20;;;;;;4957286;29;20421;-67
2023/07/22 08:59:41;;;;;;;1.50;1.40;;;37.20;51.20;;;;;;4957101;29;20173;-67
2023/07/22 09:02:12;;;;;;;1.30;1.20;;;36.20;51.30;;;;;;4957129;29;20895;-66
2023/07/22 09:04:38;;;;;;;1.30;1.20;;;35.10;51.10;;;;;;4956140;29;20472;-66
2023/07/22 09:07:05;;;;;;;1.57;1.50;;;34.70;51.40;;;;;;4956779;28;20487;-66
2023/07/22 09:09:32;;;;;;;1.17;1.17;;;34.90;51.60;;;;;;4956835;29;20177;-66
2023/07/22 09:11:59;;;;;;;1.40;1.30;;;35.00;51.80;;;;;;4956498;28;20415;-67
2023/07/22 09:14:25;;;;;;;1.30;1.20;;;34.40;52.00;;;;;;4955942;29;20427;-67
2023/07/22 09:16:51;;;;;;;1.20;1.20;;;33.50;52.60;;;;;;4956411;28;20503;-74
2023/07/22 09:19:17;;;;;;;1.30;1.20;;;31.90;56.50;;;;;;4956263;28;20463;-73
2023/07/22 09:21:42;;;;;;;1.80;1.70;;;30.90;59.80;;;;;;4956588;29;20314;-73
2023/07/22 09:24:21;;;;;;;1.50;1.40;;;30.50;61.50;;;;;;4955897;28;20291;-78
2023/07/22 09:26:47;;;;;;;1.13;1.13;;;30.10;63.50;;;;;;4956569;29;20234;-74
2023/07/22 09:29:12;;;;;;;1.30;1.20;;;30.10;62.50;;;;;;4956148;29;20399;-78
2023/07/22 09:31:54;;;;;;;1.47;1.37;;;30.20;62.90;;;;;;4956311;29;20173;-74
2023/07/22 09:34:20;;;;;;;1.40;1.30;;;30.10;61.10;;;;;;4954570;29;20279;-78
2023/07/22 09:36:56;;;;;;;1.30;1.20;;;29.70;63.90;;;;;;4956269;29;20391;-72
2023/07/22 09:39:24;;;;;;;1.10;1.00;;;29.30;63.70;;;;;;4955900;29;20415;-74
2023/07/22 09:41:50;;;;;;;1.47;1.20;;;29.00;64.30;;;;;;4956453;28;20387;-75
2023/07/22 09:44:16;;;;;;;1.40;1.30;;;29.30;63.50;;;;;;4955661;29;20547;-75
2023/07/22 09:46:46;;;;;;;1.00;1.00;;;29.80;62.90;;;;;;4956339;29;20814;-76
2023/07/22 09:49:12;;;;;;;1.63;1.53;;;30.10;60.80;;;;;;4955520;28;20779;-74
2023/07/22 09:51:39;;;;;;;1.07;1.07;;;30.40;61.30;;;;;;4956023;29;20411;-75
2023/07/22 09:54:06;;;;;;;1.70;1.60;;;30.40;60.60;;;;;;4955518;29;20783;-74
2023/07/22 09:56:43;;;;;;;1.70;1.60;;;30.50;59.20;;;;;;4955556;29;20417;-77
2023/07/22 09:59:11;;;;;;;1.23;1.13;;;31.00;59.90;;;;;;4955800;29;20869;-75
2023/07/22 10:01:42;;;;;;;1.10;1.10;;;31.70;59.00;;;;;;4955876;29;20436;-73
2023/07/22 10:04:10;;;;;;;1.73;1.63;;;32.40;57.80;;;;;;4955338;29;20515;-77
2023/07/22 10:06:38;;;;;;;1.37;1.27;;;33.00;57.70;;;;;;4955642;28;20848;-76
2023/07/22 10:09:08;;;;;;;3.17;2.37;;;33.40;56.10;;;;;;4955924;28;20487;-76
2023/07/22 10:11:35;;;;;;;1.40;1.33;;;33.30;55.50;;;;;;4938418;29;20420;-78
2023/07/22 10:14:05;;;;;;;1.10;1.10;;;33.40;56.20;;;;;;4955365;29;20452;-77
2023/07/22 10:16:32;;;;;;;1.70;1.60;;;33.30;54.80;;;;;;4955084;28;20531;-74
2023/07/22 10:18:59;;;;;;;1.60;1.50;;;33.10;57.00;;;;;;4955720;29;20503;-77
2023/07/22 10:21:25;;;;;;;1.30;1.20;;;33.40;55.70;;;;;;4955567;28;20232;-72
2023/07/22 10:23:51;;;;;;;1.60;1.50;;;33.80;54.50;;;;;;4954960;29;20460;-76
2023/07/22 10:26:18;;;;;;;2.67;2.47;;;33.80;55.60;;;;;;4955316;29;20436;-73
2023/07/22 10:28:46;;;;;;;1.60;1.50;;;33.40;55.70;;;;;;4955351;29;20811;-74
2023/07/22 10:31:18;;;;;;;0.97;0.97;;;33.10;56.70;;;;;;4955469;29;20395;-74
2023/07/22 10:33:47;;;;;;;1.67;1.30;;;32.90;57.20;;;;;;4955516;29;20412;-74
2023/07/22 10:36:14;;;;;;;1.27;1.20;;;32.20;56.20;;;;;;4955403;29;20472;-75
2023/07/22 10:38:41;;;;;;;1.73;1.63;;;31.40;56.70;;;;;;4955575;29;20395;-76
2023/07/22 10:41:18;;;;;;;1.60;1.50;;;31.00;58.90;;;;;;4954949;28;20391;-72
2023/07/22 10:43:55;;;;;;;1.50;1.40;;;30.30;57.80;;;;;;4954958;29;20200;-75
2023/07/22 10:46:35;;;;;;;1.57;1.47;;;29.80;59.50;;;;;;4955327;29;20415;-76
2023/07/22 10:49:11;;;;;;;1.33;1.10;;;29.30;62.80;;;;;;4938035;29;20423;-78
2023/07/22 10:51:37;;;;;;;1.20;1.10;;;29.50;63.00;;;;;;4938022;29;20399;-78
2023/07/22 10:54:11;;;;;;;1.17;1.07;;;29.70;62.10;;;;;;4954964;29;20438;-77
2023/07/22 10:56:36;;;;;;;1.00;1.00;;;30.10;60.90;;;;;;4954983;29;20559;-77
2023/07/22 10:59:03;;;;;;;0.87;0.87;;;30.30;59.10;;;;;;4955775;28;20609;-74
2023/07/22 11:01:35;;;;;;;1.67;1.30;;;30.20;58.30;;;;;;4959149;29;20219;-76
2023/07/22 11:04:30;;;;;;;1.40;1.30;;;30.10;59.50;;;;;;4958441;29;20460;-77
2023/07/22 11:06:56;;;;;;;1.40;1.30;;;30.60;60.10;;;;;;4958971;28;20441;-74
2023/07/22 11:09:32;;;;;;;1.23;1.20;;;31.20;58.70;;;;;;4959255;29;20428;-74
2023/07/22 11:12:03;;;;;;;1.30;1.20;;;31.20;57.40;;;;;;4959313;29;20168;-77
2023/07/22 11:14:39;;;;;;;1.17;1.13;;;31.10;56.00;;;;;;4958555;28;20462;-76
2023/07/22 11:17:07;;;;;;;1.47;1.37;;;31.30;57.30;;;;;;4959107;29;20432;-76
2023/07/22 11:19:34;;;;;;;1.20;1.20;;;31.50;55.00;;;;;;4958537;29;20428;-74
2023/07/22 11:22:01;;;;;;;1.30;1.20;;;31.40;56.40;;;;;;4958914;29;20475;-76
2023/07/22 11:24:26;;;;;;;1.20;1.20;;;31.30;56.10;;;;;;4958094;29;20845;-72
2023/07/22 11:26:53;;;;;;;1.30;1.20;;;31.00;54.50;;;;;;4958918;29;20409;-76
2023/07/22 11:29:19;;;;;;;1.93;1.80;;;30.40;54.20;;;;;;4958810;29;20651;-71
2023/07/22 11:31:47;;;;;;;0.80;0.77;;;29.90;55.20;;;;;;4958756;29;20899;-74
2023/07/22 11:34:15;;;;;;;1.33;1.10;;;29.40;56.70;;;;;;4940822;29;20537;-73
2023/07/22 11:36:41;;;;;;;1.00;1.00;;;29.10;57.80;;;;;;4958946;28;20881;-74
2023/07/22 11:39:09;;;;;;;1.50;1.40;;;28.70;57.50;;;;;;4958781;28;20383;-78
2023/07/22 11:41:36;;;;;;;1.20;1.20;;;28.30;58.50;;;;;;4958537;29;20441;-73
2023/07/22 11:44:08;;;;;;;1.47;1.37;;;28.10;61.50;;;;;;4958066;29;20427;-76
2023/07/22 11:46:36;;;;;;;1.03;1.00;;;28.10;60.20;;;;;;4958502;29;20383;-73
2023/07/22 11:49:03;;;;;;;0.80;0.80;;;28.20;59.60;;;;;;4958270;29;20379;-77
2023/07/22 11:51:29;;;;;;;0.90;0.90;;;28.30;59.20;;;;;;4958333;28;20375;-72
2023/07/22 11:53:55;;;;;;;1.23;1.13;;;28.30;59.50;;;;;;4940933;29;20428;-79
2023/07/22 11:56:21;;;;;;;1.50;1.40;;;28.20;58.60;;;;;;4941016;29;20752;-76
2023/07/22 11:58:54;;;;;;;1.23;1.13;;;28.10;59.80;;;;;;4958086;28;20426;-77
2023/07/22 12:01:21;;;;;;;1.00;1.00;;;28.20;58.60;;;;;;4957540;29;20434;-73
2023/07/22 12:03:47;;;;;;;1.20;1.10;;;28.10;58.30;;;;;;4957697;28;20925;-72
2023/07/22 12:06:13;;;;;;;1.50;1.40;;;27.90;58.80;;;;;;4957929;28;20502;-74
2023/07/22 12:08:49;;;;;;;0.80;0.80;;;27.80;59.60;;;;;;4957956;28;20173;-77
2023/07/22 12:11:24;;;;;;;1.67;1.37;;;27.90;61.00;;;;;;4956000;28;20490;-73
2023/07/22 12:14:08;;;;;;;1.10;1.00;;;27.90;59.70;;;;;;4957518;29;20495;-65
2023/07/22 12:16:36;;;;;;;1.10;1.00;;;27.90;57.90;;;;;;4958030;29;20420;-66
2023/07/22 12:19:02;;;;;;;1.13;1.03;;;27.80;58.80;;;;;;4957942;29;20400;-65
2023/07/22 12:21:28;;;;;;;0.90;0.90;;;27.80;58.10;;;;;;4957881;29;20450;-65
2023/07/22 12:23:54;;;;;;;1.33;1.07;;;27.70;58.50;;;;;;4957067;29;20437;-66
2023/07/22 12:26:20;;;;;;;0.63;0.63;;;27.60;58.70;;;;;;4957578;29;20199;-66
2023/07/22 12:28:46;;;;;;;0.90;0.90;;;27.60;59.30;;;;;;4957706;29;20176;-66
2023/07/22 12:31:12;;;;;;;1.07;1.00;;;27.60;60.50;;;;;;4956846;29;20410;-65
2023/07/22 12:33:37;;;;;;;1.00;1.00;;;27.60;59.70;;;;;;4957084;28;20466;-66
2023/07/22 12:36:03;;;;;;;1.10;1.10;;;27.40;59.40;;;;;;4957508;28;20200;-66
2023/07/22 12:38:29;;;;;;;1.40;1.30;;;27.50;60.50;;;;;;4957012;28;20191;-70
2023/07/22 12:40:54;;;;;;;1.00;0.90;;;27.60;59.10;;;;;;4957287;28;20227;-66
2023/07/22 12:43:20;;;;;;;0.70;0.70;;;27.60;58.50;;;;;;4957230;29;20215;-66
2023/07/22 12:45:45;;;;;;;0.80;0.70;;;27.50;58.20;;;;;;4956761;29;20272;-67
2023/07/22 12:48:11;;;;;;;1.23;1.23;;;27.50;58.20;;;;;;4957269;29;20180;-67
2023/07/22 12:50:37;;;;;;;0.93;0.80;;;27.50;58.20;;;;;;4957140;28;20180;-65
2023/07/22 12:53:03;;;;;;;1.20;1.10;;;27.60;59.80;;;;;;4956831;29;20211;-67
2023/07/22 12:55:29;;;;;;;1.30;1.20;;;27.80;59.30;;;;;;4956425;29;20560;-66
2023/07/22 12:57:55;;;;;;;1.37;1.07;;;27.90;58.40;;;;;;4957036;29;20920;-67
2023/07/22 13:00:20;;;;;;;1.00;1.00;;;27.90;59.30;;;;;;4957081;29;20400;-66
2023/07/22 13:02:47;;;;;;;1.17;1.07;;;28.00;59.10;;;;;;4956965;29;20267;-65
2023/07/22 13:05:12;;;;;;;1.50;1.40;;;28.00;59.30;;;;;;4956442;29;20607;-66
2023/07/22 13:07:38;;;;;;;1.00;1.00;;;27.90;59.00;;;;;;4956473;28;20442;-65
2023/07/22 13:10:08;;;;;;;1.10;1.10;;;27.80;59.20;;;;;;4956962;29;20540;-67
2023/07/22 13:12:34;;;;;;;1.97;1.73;;;27.70;59.70;;;;;;4956787;29;20419;-66
2023/07/22 13:15:00;;;;;;;0.97;0.87;;;27.70;59.60;;;;;;4956001;29;20984;-67
2023/07/22 13:17:26;;;;;;;1.60;1.50;;;27.60;60.40;;;;;;4956677;29;20174;-66
2023/07/22 13:19:51;;;;;;;1.80;1.70;;;27.60;59.80;;;;;;4956636;29;20180;-67
2023/07/22 13:22:17;;;;;;;0.97;0.93;;;27.60;60.00;;;;;;4955339;28;20432;-66
2023/07/22 13:24:42;;;;;;;1.60;1.50;;;27.80;59.50;;;;;;4954847;29;20225;-66
2023/07/22 13:27:08;;;;;;;1.13;1.00;;;28.00;58.70;;;;;;4956459;29;20256;-66
2023/07/22 13:29:34;;;;;;;1.50;1.40;;;28.10;59.60;;;;;;4938881;29;20209;-65
2023/07/22 13:31:59;;;;;;;1.10;1.00;;;28.30;57.90;;;;;;4956561;29;20180;-66
2023/07/22 13:34:25;;;;;;;2.00;1.50;;;28.30;57.70;;;;;;4956019;28;20189;-66
2023/07/22 13:36:51;;;;;;;1.40;1.30;;;28.40;58.30;;;;;;4956294;29;20184;-65
2023/07/22 13:39:16;;;;;;;3.93;1.73;;;28.50;58.40;;;;;;4956192;28;20251;-65
2023/07/22 13:41:42;;;;;;;1.93;1.53;;;28.50;56.20;;;;;;4956258;28;20212;-66
2023/07/22 13:44:07;;;;;;;1.53;1.43;;;28.60;56.90;;;;;;4955939;29;20226;-66
2023/07/22 13:46:33;;;;;;;1.43;1.20;;;28.70;57.50;;;;;;4956461;29;20595;-66
2023/07/22 13:48:58;;;;;;;1.13;1.03;;;28.90;56.90;;;;;;4955429;29;20173;-66
2023/07/22 13:51:24;;;;;;;1.17;1.03;;;28.90;56.70;;;;;;4954700;28;20177;-66
2023/07/22 13:53:51;;;;;;;1.07;1.00;;;28.90;57.50;;;;;;4954925;28;20188;-66
2023/07/22 13:56:17;;;;;;;1.90;1.30;;;28.90;56.00;;;;;;4956108;28;20217;-65
2023/07/22 13:58:43;;;;;;;1.77;1.30;;;28.80;57.90;;;;;;4956329;29;20742;-65
2023/07/22 14:01:08;;;;;;;1.70;1.60;;;28.70;57.40;;;;;;4956150;29;20254;-66
2023/07/22 14:03:34;;;;;;;1.30;1.20;;;28.60;57.50;;;;;;4955561;29;20194;-66
2023/07/22 14:06:00;;;;;;;1.20;1.20;;;28.50;58.10;;;;;;4955350;28;20224;-66
2023/07/22 14:08:25;;;;;;;1.30;1.30;;;28.30;57.50;;;;;;4956016;28;20612;-65
2023/07/22 14:10:51;;;;;;;1.73;1.30;;;28.10;58.70;;;;;;4956675;29;20184;-65
2023/07/22 14:13:16;;;;;;;1.10;0.90;;;28.00;58.90;;;;;;4956028;29;20620;-66
2023/07/22 14:15:42;;;;;;;1.33;1.30;;;27.90;58.00;;;;;;4955601;29;20201;-66
2023/07/22 14:18:07;;;;;;;1.53;1.43;;;28.10;57.80;;;;;;4955977;29;20209;-65
2023/07/22 14:20:33;;;;;;;1.77;1.60;;;28.20;57.20;;;;;;4955486;29;20181;-66
2023/07/22 14:22:59;;;;;;;1.40;1.30;;;28.30;56.40;;;;;;4938624;29;20180;-66
2023/07/22 14:25:25;;;;;;;1.60;1.17;;;28.30;56.70;;;;;;4955133;29;20216;-66
2023/07/22 14:27:50;;;;;;;1.03;1.03;;;28.20;57.40;;;;;;4956009;28;20176;-66
2023/07/22 14:30:16;;;;;;;1.73;1.57;;;28.20;57.70;;;;;;4955746;29;20180;-66
2023/07/22 14:32:41;;;;;;;1.63;1.53;;;28.20;57.80;;;;;;4955643;28;20211;-66
2023/07/22 14:35:08;;;;;;;1.60;1.50;;;28.10;58.10;;;;;;4954247;29;20210;-65
2023/07/22 14:37:33;;;;;;;2.10;1.83;;;28.10;58.10;;;;;;4955700;29;20184;-65
2023/07/22 14:39:59;;;;;;;2.00;1.67;;;28.10;58.20;;;;;;4955310;29;20427;-65
2023/07/22 14:42:24;;;;;;;1.30;1.30;;;28.10;58.60;;;;;;4955455;28;20188;-66
2023/07/22 14:44:50;;;;;;;1.43;1.33;;;28.00;57.90;;;;;;4954865;29;20264;-66
2023/07/22 14:47:16;;;;;;;1.27;1.10;;;28.00;58.20;;;;;;4955431;29;20252;-65
2023/07/22 14:49:41;;;;;;;1.43;1.30;;;28.10;58.00;;;;;;4955000;29;20291;-65
2023/07/22 14:52:07;;;;;;;2.37;1.60;;;28.00;56.80;;;;;;4955387;29;20216;-65
2023/07/22 14:54:33;;;;;;;1.27;1.17;;;28.10;56.90;;;;;;4954851;29;20296;-66
2023/07/22 14:56:59;;;;;;;2.00;1.00;;;28.10;56.70;;;;;;4955251;29;20188;-66
2023/07/22 14:59:26;;;;;;;1.40;1.30;;;28.10;56.50;;;;;;4954778;29;20414;-66
2023/07/22 15:01:52;;;;;;;1.60;1.50;;;28.00;56.10;;;;;;4955075;29;20598;-66
2023/07/22 15:04:18;;;;;;;1.60;1.50;;;27.80;57.30;;;;;;4954486;28;20469;-66
2023/07/22 15:06:43;;;;;;;1.60;1.40;;;27.60;58.00;;;;;;4954749;28;20766;-66
2023/07/22 15:09:10;;;;;;;1.67;1.40;;;27.40;57.70;;;;;;4954677;28;20190;-66
2023/07/22 15:11:36;;;;;;;1.20;1.20;;;27.30;58.30;;;;;;4954825;29;20664;-65
2023/07/22 15:14:03;;;;;;;2.97;1.80;;;27.20;59.00;;;;;;4954517;29;20578;-66
2023/07/22 15:16:29;;;;;;;1.37;1.27;;;27.20;58.30;;;;;;4954954;29;20921;-66
2023/07/22 15:18:54;;;;;;;2.20;1.67;;;27.30;59.20;;;;;;4954998;29;20428;-66
2023/07/22 15:21:20;;;;;;;1.37;1.27;;;27.30;59.20;;;;;;4954865;29;20194;-66
2023/07/22 15:23:45;;;;;;;1.00;1.00;;;27.30;59.40;;;;;;4954213;29;20210;-64
2023/07/22 15:26:11;;;;;;;1.70;1.60;;;27.30;59.40;;;;;;4954889;29;20543;-64
2023/07/22 15:28:37;;;;;;;2.47;1.60;;;27.20;58.60;;;;;;4954712;29;20176;-65
2023/07/22 15:31:02;;;;;;;1.80;1.33;;;27.10;57.80;;;;;;4954442;29;20182;-65
2023/07/22 15:33:28;;;;;;;1.70;1.60;;;27.00;57.60;;;;;;4954229;29;20266;-65
2023/07/22 15:35:54;;;;;;;1.20;1.10;;;27.00;57.20;;;;;;4954961;29;20202;-65
2023/07/22 15:38:20;;;;;;;2.00;1.73;;;27.00;57.00;;;;;;4954973;29;20265;-65
2023/07/22 15:40:45;;;;;;;1.40;1.30;;;26.90;56.90;;;;;;4954423;29;20424;-65
2023/07/22 15:43:11;;;;;;;1.87;1.50;;;26.90;56.90;;;;;;4954754;28;20182;-65
2023/07/22 15:45:37;;;;;;;2.10;1.40;;;26.90;57.00;;;;;;4954604;28;20297;-66
2023/07/22 15:48:03;;;;;;;1.63;1.37;;;26.90;57.00;;;;;;4958342;29;20164;-65
2023/07/22 15:50:28;;;;;;;2.80;1.77;;;26.90;57.60;;;;;;4958493;29;20587;-66
2023/07/22 15:52:54;;;;;;;2.50;1.50;;;26.90;57.30;;;;;;4959048;29;20167;-66
2023/07/22 15:55:21;;;;;;;1.10;1.00;;;27.00;58.60;;;;;;4957619;29;20547;-66
2023/07/22 15:57:47;;;;;;;1.13;1.03;;;27.00;59.40;;;;;;4958492;28;20279;-65
2023/07/22 16:00:12;;;;;;;1.13;1.10;;;27.00;60.20;;;;;;4949574;29;20413;-66
2023/07/22 16:02:39;;;;;;;1.20;1.10;;;26.90;59.30;;;;;;4922047;29;20195;-66
2023/07/22 16:05:05;;;;;;;2.17;1.60;;;26.90;60.10;;;;;;4938532;29;20207;-66
2023/07/22 16:07:34;;;;;;;1.00;0.90;;;26.90;60.00;;;;;;4945419;29;20449;-67
2023/07/22 16:10:00;;;;;;;1.67;1.60;;;26.90;60.30;;;;;;4957886;29;20441;-65
2023/07/22 16:12:28;;;;;;;1.63;1.53;;;26.80;61.20;;;;;;4958353;29;20381;-68
2023/07/22 16:14:55;;;;;;;2.17;1.60;;;26.70;61.20;;;;;;4958149;29;20434;-68
2023/07/22 16:17:21;;;;;;;1.47;1.37;;;26.60;61.20;;;;;;4957692;29;20496;-66
2023/07/22 16:19:47;;;;;;;3.87;2.13;;;26.60;62.90;;;;;;4957862;29;20417;-66
2023/07/22 16:22:12;;;;;;;1.37;1.27;;;26.50;61.30;;;;;;4957878;29;20392;-69
2023/07/22 16:24:38;;;;;;;1.83;1.63;;;26.50;60.70;;;;;;4957156;29;20201;-66
2023/07/22 16:27:04;;;;;;;1.63;1.53;;;26.50;61.00;;;;;;4958101;29;20635;-66
2023/07/22 16:29:29;;;;;;;2.10;1.40;;;26.40;61.90;;;;;;4958024;29;20178;-65
2023/07/22 16:31:55;;;;;;;1.43;1.33;;;26.40;61.40;;;;;;4957655;29;20185;-66
2023/07/22 16:34:21;;;;;;;1.77;1.67;;;26.40;61.30;;;;;;4957208;28;20533;-66
2023/07/22 16:36:47;;;;;;;1.20;1.10;;;26.30;61.20;;;;;;4957575;28;20169;-64
2023/07/22 16:39:13;;;;;;;1.10;1.00;;;26.20;62.90;;;;;;4957167;28;20181;-64
2023/07/22 16:41:39;;;;;;;1.10;1.10;;;26.20;62.70;;;;;;4957593;29;20437;-67
2023/07/22 16:44:05;;;;;;;0.90;0.90;;;26.10;62.30;;;;;;4955830;29;20442;-68
2023/07/22 16:46:32;;;;;;;1.57;1.33;;;26.10;62.30;;;;;;4968061;28;20180;-66
2023/07/22 16:49:00;;;;;;;1.60;1.50;;;26.00;63.20;;;;;;4976544;28;20251;-65